createdAt,value
2023-02-11T00:00:07.635Z,84.29
2023-02-11T00:04:29.390Z,84.92
2023-02-11T00:08:31.335Z,85.49
2023-02-11T00:12:35.425Z,85.66
2023-02-11T00:16:37.219Z,85.93
2023-02-11T00:20:39.447Z,86.32
2023-02-11T00:24:41.911Z,85.73
2023-02-11T00:28:44.586Z,85.22
2023-02-11T00:32:47.596Z,85.11
2023-02-11T00:36:50.134Z,85.30
2023-02-11T00:40:51.992Z,85.45
2023-02-11T00:44:53.711Z,85.41
2023-02-11T00:48:57.435Z,85.51
2023-02-11T00:52:59.262Z,85.60
2023-02-11T00:57:01.190Z,85.51
2023-02-11T01:01:04.580Z,85.36
2023-02-11T01:05:06.961Z,85.52
2023-02-11T01:09:08.874Z,85.92
2023-02-11T01:13:10.860Z,85.74
2023-02-11T01:17:12.785Z,85.58
2023-02-11T01:21:14.674Z,85.47
2023-02-11T01:25:16.616Z,85.38
2023-02-11T01:29:18.542Z,85.45
2023-02-11T01:33:22.234Z,85.49
2023-02-11T01:37:24.257Z,85.44
2023-02-11T01:41:26.031Z,85.19
2023-02-11T01:45:47.010Z,84.92
2023-02-11T01:49:56.495Z,85.26
2023-02-11T01:54:17.893Z,84.53
2023-02-11T01:58:20.424Z,83.01
2023-02-11T02:02:30.376Z,81.87
2023-02-11T02:06:40.441Z,81.04
2023-02-11T02:10:46.503Z,80.22
2023-02-11T02:14:48.281Z,79.91
2023-02-11T02:19:25.311Z,79.32
2023-02-11T02:24:04.532Z,79.14
2023-02-11T02:28:25.308Z,78.66
2023-02-11T02:32:30.850Z,78.45
2023-02-11T02:37:10.551Z,78.61
2023-02-11T02:41:16.479Z,79.10
2023-02-11T02:45:19.160Z,78.82
2023-02-11T02:49:20.966Z,79.26
2023-02-11T02:53:54.555Z,79.34
2023-02-11T02:58:25.152Z,79.53
2023-02-11T03:02:31.436Z,79.84
2023-02-11T03:07:00.525Z,79.70
2023-02-11T03:11:05.287Z,79.59
2023-02-11T03:15:08.331Z,79.49
2023-02-11T03:19:34.400Z,79.48
2023-02-11T03:23:40.918Z,79.32
2023-02-11T03:27:52.526Z,79.74
2023-02-11T03:32:15.883Z,80.05
2023-02-11T03:36:27.416Z,80.42
2023-02-11T03:40:34.770Z,80.52
2023-02-11T03:44:42.494Z,80.57
2023-02-11T03:48:50.052Z,80.76
2023-02-11T03:52:53.601Z,80.63
2023-02-11T03:56:58.209Z,80.52
2023-02-11T04:01:02.586Z,80.49
2023-02-11T04:05:06.822Z,80.39
2023-02-11T04:09:17.031Z,80.40
2023-02-11T04:13:19.883Z,80.42
2023-02-11T04:17:24.716Z,79.87
2023-02-11T04:21:26.633Z,80.08
2023-02-11T04:25:28.701Z,80.10
2023-02-11T04:29:31.555Z,80.29
2023-02-11T04:33:35.563Z,80.29
2023-02-11T04:37:37.453Z,80.60
2023-02-11T04:41:39.262Z,80.43
2023-02-11T04:45:41.238Z,80.49
2023-02-11T04:49:43.552Z,80.45
2023-02-11T04:53:46.431Z,80.70
2023-02-11T04:57:52.145Z,80.45
2023-02-11T05:01:54.041Z,80.21
2023-02-11T05:05:56.310Z,80.34
2023-02-11T05:09:58.441Z,80.15
2023-02-11T05:14:01.194Z,80.09
2023-02-11T05:18:03.156Z,80.10
2023-02-11T05:22:05.135Z,79.67
2023-02-11T05:26:09.564Z,79.54
2023-02-11T05:30:11.964Z,79.85
2023-02-11T05:34:13.792Z,79.74
2023-02-11T05:38:16.952Z,79.58
2023-02-11T05:42:18.760Z,79.59
2023-02-11T05:46:20.664Z,79.71
2023-02-11T05:50:22.662Z,79.77
2023-02-11T05:54:24.449Z,80.89
2023-02-11T05:58:26.266Z,82.26
2023-02-11T06:02:28.041Z,82.70
2023-02-11T06:06:30.082Z,83.09
2023-02-11T06:10:31.936Z,83.71
2023-02-11T06:14:33.851Z,83.70
2023-02-11T06:18:35.678Z,84.15
2023-02-11T06:22:37.973Z,84.44
2023-02-11T06:26:40.138Z,84.60
2023-02-11T06:30:42.356Z,85.07
2023-02-11T06:34:45.943Z,85.68
2023-02-11T06:38:49.033Z,86.18
2023-02-11T06:42:51.174Z,86.65
2023-02-11T06:46:53.227Z,86.93
2023-02-11T06:50:55.246Z,86.93
2023-02-11T06:54:57.450Z,87.08
2023-02-11T06:59:01.993Z,87.56
2023-02-11T07:03:06.904Z,87.80
2023-02-11T07:07:09.119Z,87.55
2023-02-11T07:11:20.879Z,87.72
2023-02-11T07:15:22.700Z,88.34
2023-02-11T07:19:24.569Z,88.54
2023-02-11T07:23:26.405Z,88.81
2023-02-11T07:27:28.277Z,88.95
2023-02-11T07:31:31.183Z,89.03
2023-02-11T07:35:33.299Z,89.00
2023-02-11T07:39:35.692Z,89.04
2023-02-11T07:43:39.358Z,89.04
2023-02-11T07:47:42.666Z,88.97
2023-02-11T07:51:45.481Z,89.35
2023-02-11T07:55:47.392Z,89.02
2023-02-11T07:59:58.256Z,89.23
2023-02-11T08:04:02.287Z,89.25
2023-02-11T08:08:04.398Z,89.99
2023-02-11T08:12:07.636Z,90.34
2023-02-11T08:16:23.898Z,90.48
2023-02-11T08:20:26.078Z,91.41
2023-02-11T08:24:28.919Z,92.33
2023-02-11T08:28:31.982Z,92.41
2023-02-11T08:56:59.792Z,93.52
2023-02-11T09:01:12.907Z,93.40
2023-02-11T09:05:15.540Z,92.60
2023-02-11T09:09:17.818Z,92.55
2023-02-11T09:13:43.734Z,93.04
2023-02-11T09:17:47.944Z,93.09
2023-02-11T09:21:51.014Z,92.83
2023-02-11T09:25:53.049Z,91.61
2023-02-11T09:29:55.882Z,91.19
2023-02-11T09:34:01.451Z,91.10
2023-02-11T09:38:03.390Z,91.28
2023-02-11T09:42:19.902Z,91.32
2023-02-11T09:46:39.621Z,91.78
2023-02-11T09:50:46.729Z,91.61
2023-02-11T09:55:09.278Z,91.50
2023-02-11T09:59:16.975Z,91.56
2023-02-11T10:03:39.101Z,92.08
2023-02-11T10:08:22.860Z,91.89
2023-02-11T10:13:01.480Z,91.06
2023-02-11T10:17:16.553Z,90.81
2023-02-11T10:27:01.486Z,92.09
2023-02-11T10:31:42.893Z,91.84
2023-02-11T10:35:46.740Z,92.07
2023-02-11T10:39:50.525Z,92.58
2023-02-11T10:43:52.522Z,92.80
2023-02-11T10:47:54.608Z,92.87
2023-02-11T10:52:18.210Z,92.94
2023-02-11T10:56:27.177Z,92.93
2023-02-11T11:00:56.458Z,93.29
2023-02-11T11:05:03.425Z,92.98
2023-02-11T11:09:05.070Z,92.95
2023-02-11T11:13:58.552Z,92.25
2023-02-11T11:18:22.855Z,92.32
2023-02-11T11:22:24.966Z,92.07
2023-02-11T11:27:02.382Z,91.35
2023-02-11T11:31:05.374Z,90.43
2023-02-11T11:35:28.955Z,89.64
2023-02-11T11:39:34.228Z,89.05
2023-02-11T11:43:38.415Z,88.63
2023-02-11T11:48:47.808Z,88.27
2023-02-11T11:53:16.156Z,88.57
2023-02-11T11:57:22.863Z,89.03
2023-02-11T12:01:54.830Z,89.56
2023-02-11T12:06:29.647Z,90.44
2023-02-11T12:11:18.949Z,90.78
2023-02-11T12:15:41.182Z,91.01
2023-02-11T12:19:50.379Z,90.79
2023-02-11T12:23:55.733Z,90.31
2023-02-11T12:28:07.135Z,90.24
2023-02-11T12:32:31.513Z,89.92
2023-02-11T12:36:53.883Z,90.02
2023-02-11T12:41:04.383Z,90.48
2023-02-11T12:45:26.066Z,91.14
2023-02-11T12:49:49.938Z,91.39
2023-02-11T12:54:10.717Z,91.63
2023-02-11T12:58:45.815Z,91.73
2023-02-11T13:03:14.270Z,91.69
2023-02-11T13:07:30.647Z,91.83
2023-02-11T13:11:39.994Z,91.88
2023-02-11T13:16:05.272Z,91.90
2023-02-11T13:20:30.258Z,92.38
2023-02-11T13:25:03.229Z,92.52
2023-02-11T13:29:16.491Z,91.82
2023-02-11T13:33:50.608Z,92.03
2023-02-11T13:37:55.822Z,92.71
2023-02-11T13:42:04.367Z,93.35
2023-02-11T13:46:09.931Z,94.15
2023-02-11T13:50:46.791Z,95.07
2023-02-11T13:54:52.799Z,95.39
2023-02-11T13:58:54.830Z,95.75
2023-02-11T14:03:31.380Z,95.85
2023-02-11T14:12:36.473Z,96.11
2023-02-11T14:17:18.548Z,96.36
2023-02-11T14:26:25.621Z,98.09
2023-02-11T14:30:38.758Z,98.66
2023-02-11T14:35:06.043Z,99.69
2023-02-11T14:39:41.252Z,99.97
2023-02-11T14:43:56.219Z,100.00
2023-02-11T14:48:07.730Z,100.00
2023-02-11T14:52:36.289Z,100.00
2023-02-11T14:56:44.466Z,100.00
2023-02-11T15:00:59.987Z,100.00
2023-02-11T15:05:15.949Z,100.00
2023-02-11T15:09:44.183Z,100.00
2023-02-11T15:13:51.728Z,100.00
2023-02-11T15:17:59.024Z,100.00
2023-02-11T15:22:04.833Z,100.00
2023-02-11T15:26:14.042Z,100.00
2023-02-11T15:30:22.261Z,100.00
2023-02-11T15:34:24.233Z,100.00
2023-02-11T15:38:29.295Z,100.00
2023-02-11T15:42:40.970Z,100.00
2023-02-11T15:46:46.906Z,100.00
2023-02-11T15:50:58.532Z,100.00
2023-02-11T15:59:56.077Z,100.00
2023-02-11T16:04:01.368Z,100.00
2023-02-11T16:08:29.468Z,100.00
2023-02-11T16:12:31.621Z,100.00
2023-02-11T16:16:34.740Z,100.00
2023-02-11T16:20:37.961Z,100.00
2023-02-11T16:25:20.220Z,100.00
2023-02-11T16:29:32.413Z,100.00
2023-02-11T16:33:42.431Z,100.00
2023-02-11T16:37:45.199Z,100.00
2023-02-11T16:41:53.761Z,100.00
2023-02-11T17:03:39.559Z,100.00
2023-02-11T17:07:56.381Z,100.00
2023-02-11T17:12:35.045Z,100.00
2023-02-11T17:16:39.930Z,100.00
2023-02-11T17:20:42.180Z,100.00
2023-02-11T17:24:44.305Z,100.00
2023-02-11T17:28:47.710Z,100.00
2023-02-11T17:32:50.673Z,100.00
2023-02-11T17:36:52.640Z,100.00
2023-02-11T17:40:59.326Z,100.00
2023-02-11T17:45:01.217Z,100.00
2023-02-11T17:49:03.496Z,100.00
2023-02-11T17:53:06.597Z,100.00
2023-02-11T17:57:10.383Z,100.00
2023-02-11T18:01:12.881Z,100.00
2023-02-11T18:05:14.856Z,100.00
2023-02-11T18:09:16.885Z,100.00
2023-02-11T18:13:19.231Z,100.00
2023-02-11T18:17:22.012Z,100.00
2023-02-11T18:21:24.428Z,100.00
2023-02-11T18:25:26.290Z,100.00
2023-02-11T18:29:29.195Z,100.00
2023-02-11T18:33:31.548Z,100.00
2023-02-11T18:37:33.307Z,100.00
2023-02-11T18:41:35.494Z,100.00
2023-02-11T18:45:37.503Z,100.00
2023-02-11T18:49:39.448Z,100.00
2023-02-11T18:53:42.148Z,100.00
2023-02-11T18:57:44.734Z,100.00
2023-02-11T19:01:47.478Z,100.00
2023-02-11T19:05:51.704Z,100.00
2023-02-11T19:09:55.428Z,100.00
2023-02-11T19:13:58.030Z,100.00
2023-02-11T19:17:59.784Z,100.00
2023-02-11T19:22:07.272Z,100.00
2023-02-11T19:26:10.300Z,100.00
2023-02-11T19:30:12.406Z,100.00
2023-02-11T19:34:15.775Z,100.00
2023-02-11T19:38:25.205Z,100.00
2023-02-11T19:42:40.141Z,100.00
2023-02-11T19:47:10.992Z,100.00
2023-02-11T19:51:25.130Z,100.00
2023-02-11T19:55:32.664Z,100.00
2023-02-11T19:59:54.074Z,100.00
2023-02-11T20:04:04.436Z,100.00
2023-02-11T20:08:21.086Z,100.00
2023-02-11T20:12:24.269Z,100.00
2023-02-11T20:16:46.801Z,100.00
2023-02-11T20:20:55.087Z,100.00
2023-02-11T20:24:59.678Z,100.00
2023-02-11T20:29:08.791Z,100.00
2023-02-11T20:33:18.750Z,100.00
2023-02-11T20:37:21.946Z,100.00
2023-02-11T20:41:27.991Z,100.00
2023-02-11T20:45:33.707Z,100.00
2023-02-11T20:49:46.550Z,100.00
2023-02-11T20:53:51.715Z,100.00
2023-02-11T20:58:00.730Z,100.00
2023-02-11T21:02:08.314Z,100.00
2023-02-11T21:06:20.636Z,100.00
2023-02-11T21:10:32.401Z,100.00
2023-02-11T21:14:37.332Z,100.00
2023-02-11T21:18:51.125Z,100.00
2023-02-11T21:22:57.598Z,100.00
2023-02-11T21:26:59.474Z,100.00
2023-02-11T21:31:03.263Z,100.00
2023-02-11T21:35:06.039Z,100.00
2023-02-11T21:39:08.477Z,100.00
2023-02-11T21:43:10.355Z,100.00
2023-02-11T21:47:12.908Z,100.00
2023-02-11T21:51:17.733Z,100.00
2023-02-11T21:55:20.225Z,100.00
2023-02-11T21:59:22.033Z,100.00
2023-02-11T22:03:23.994Z,100.00
2023-02-11T22:07:27.510Z,100.00
2023-02-11T22:11:29.748Z,100.00
2023-02-11T22:15:31.621Z,100.00
2023-02-11T22:19:34.413Z,100.00
2023-02-11T22:23:37.791Z,100.00
2023-02-11T22:27:39.736Z,100.00
2023-02-11T22:31:42.010Z,100.00
2023-02-11T22:35:43.976Z,100.00
2023-02-11T22:39:46.219Z,100.00
2023-02-11T22:43:48.255Z,100.00
2023-02-11T22:47:50.335Z,100.00
2023-02-11T22:51:52.766Z,100.00
2023-02-11T22:55:54.824Z,100.00
2023-02-11T22:59:56.926Z,100.00
2023-02-11T23:04:00.397Z,100.00
2023-02-11T23:08:02.316Z,100.00
2023-02-11T23:12:04.942Z,100.00
2023-02-11T23:16:10.486Z,100.00
2023-02-11T23:20:13.002Z,100.00
2023-02-11T23:24:15.498Z,100.00
2023-02-11T23:28:17.519Z,100.00
2023-02-11T23:32:20.433Z,100.00
2023-02-11T23:36:23.260Z,100.00
2023-02-11T23:40:25.180Z,100.00
2023-02-11T23:44:27.920Z,100.00
2023-02-11T23:48:30.754Z,100.00
2023-02-11T23:52:32.841Z,100.00
2023-02-11T23:56:36.470Z,100.00
